YPGV/GOV METAR and TAF weather

Enter ICAO airport designator
Station Type Date Time Source
YPGV METAR 2021/09/27 06:30 UTC NOAA

YPGV 270630Z AUTO 08012KT 9999 // SCT024 30/22 Q1009 RF00.0/000.0


Station Type Date Time Source
YPGV Decoded METAR 2021/09/27 06:30 UTC NOAA

Station name not available
Sep 27, 2021 - 02:30 AM EDT / 2021.09.27 0630 UTC
Wind: from the E (080 degrees) at 14 MPH (12 KT):0
Visibility: greater than 7 mile(s):0
Sky conditions: partly cloudy
Temperature: 86 F (30 C)
Heat index: 91.8 F (33.2 C):1
Dew Point: 71 F (22 C)
Relative Humidity: 62%
Pressure (altimeter): 29.80 in. Hg (1009 hPa)
ob: YPGV 270630Z AUTO 08012KT 9999 // SCT024 30/22 Q1009 RF00.0/000.0
cycle: 6

Station Type Date Time Source
YPGV TAF 2021/09/27 02:00 UTC NOAA

TAF YPGV 270120Z 2702/2714 06013KT 9999 SCT030
FM270900 11007KT 9999 SCT010

Example: see airport list